createdAt,value
2022-12-06T00:00:13.080Z,1.16
2022-12-06T00:02:42.603Z,1.14
2022-12-06T00:05:12.390Z,1.15
2022-12-06T00:07:44.663Z,1.16
2022-12-06T00:10:14.646Z,1.09
2022-12-06T00:12:44.156Z,1.09
2022-12-06T00:15:14.089Z,1.09
2022-12-06T00:17:43.630Z,1.11
2022-12-06T00:20:13.790Z,1.11
2022-12-06T00:22:49.265Z,1.16
2022-12-06T00:25:19.171Z,1.17
2022-12-06T00:27:48.663Z,1.17
2022-12-06T00:30:18.701Z,1.17
2022-12-06T00:32:48.224Z,1.18
2022-12-06T00:35:17.995Z,1.16
2022-12-06T00:37:50.100Z,1.16
2022-12-06T00:40:19.929Z,1.17
2022-12-06T00:42:49.532Z,1.17
2022-12-06T00:45:19.327Z,1.17
2022-12-06T00:47:48.886Z,1.16
2022-12-06T00:50:18.607Z,1.16
2022-12-06T00:52:50.761Z,1.18
2022-12-06T00:55:20.344Z,1.19
2022-12-06T00:57:50.364Z,1.19
2022-12-06T01:00:20.693Z,1.19
2022-12-06T01:02:50.284Z,1.19
2022-12-06T01:05:19.937Z,1.20
2022-12-06T01:07:52.195Z,1.25
2022-12-06T01:10:21.818Z,1.26
2022-12-06T01:12:51.399Z,1.26
2022-12-06T01:15:21.084Z,1.28
2022-12-06T01:17:50.672Z,1.30
2022-12-06T01:20:20.481Z,1.33
2022-12-06T01:22:52.799Z,1.30
2022-12-06T01:25:25.280Z,1.26
2022-12-06T01:27:55.801Z,1.26
2022-12-06T01:30:25.466Z,1.27
2022-12-06T01:32:55.066Z,1.28
2022-12-06T01:35:24.681Z,1.29
2022-12-06T01:37:58.537Z,1.30
2022-12-06T01:40:31.387Z,1.30
2022-12-06T01:43:00.968Z,1.29
2022-12-06T01:45:30.693Z,1.30
2022-12-06T01:48:00.686Z,1.29
2022-12-06T01:50:32.817Z,1.30
2022-12-06T01:53:07.006Z,1.30
2022-12-06T01:55:39.602Z,1.31
2022-12-06T01:58:12.660Z,1.31
2022-12-06T02:00:42.248Z,1.31
2022-12-06T02:03:15.080Z,1.33
2022-12-06T02:05:45.387Z,1.31
2022-12-06T02:08:18.215Z,1.33
2022-12-06T02:10:47.841Z,1.35
2022-12-06T02:13:17.481Z,1.30
2022-12-06T02:15:55.106Z,1.31
2022-12-06T02:18:40.788Z,1.30
2022-12-06T02:21:17.025Z,1.31
2022-12-06T02:24:09.322Z,1.28
2022-12-06T02:26:44.980Z,1.28
2022-12-06T02:29:44.625Z,1.29
2022-12-06T02:32:20.511Z,1.29
2022-12-06T02:34:56.696Z,1.30
2022-12-06T02:37:30.243Z,1.29
2022-12-06T02:40:03.845Z,1.30
2022-12-06T02:42:37.444Z,1.30
2022-12-06T02:45:12.371Z,1.29
2022-12-06T02:47:45.643Z,1.30
2022-12-06T02:50:19.463Z,1.29
2022-12-06T02:52:52.744Z,1.30
2022-12-06T02:55:24.091Z,1.32
2022-12-06T02:57:56.951Z,1.33
2022-12-06T03:00:38.722Z,1.43
2022-12-06T03:03:34.018Z,1.37
2022-12-06T03:06:25.181Z,1.33
2022-12-06T03:09:05.661Z,1.34
2022-12-06T03:11:40.938Z,1.36
2022-12-06T03:14:14.917Z,1.35
2022-12-06T03:16:49.615Z,1.35
2022-12-06T03:19:23.360Z,1.34
2022-12-06T03:21:58.512Z,1.34
2022-12-06T03:24:29.235Z,1.34
2022-12-06T03:27:00.399Z,1.34
2022-12-06T03:29:31.843Z,1.35
2022-12-06T03:32:03.419Z,1.32
2022-12-06T03:34:39.061Z,1.31
2022-12-06T03:37:10.445Z,1.32
2022-12-06T03:39:44.762Z,1.31
2022-12-06T03:42:14.520Z,1.31
2022-12-06T03:44:44.254Z,1.30
2022-12-06T03:47:16.883Z,1.32
2022-12-06T03:49:50.741Z,1.31
2022-12-06T03:52:20.327Z,1.30
2022-12-06T03:54:49.878Z,1.29
2022-12-06T03:57:19.549Z,1.30
2022-12-06T03:59:49.092Z,1.35
2022-12-06T04:02:18.807Z,1.31
2022-12-06T04:04:51.124Z,1.32
2022-12-06T04:07:21.364Z,1.32
2022-12-06T04:10:03.371Z,1.34
2022-12-06T04:12:46.015Z,1.33
2022-12-06T04:15:15.786Z,1.35
2022-12-06T04:17:58.345Z,1.37
2022-12-06T04:20:51.531Z,1.36
2022-12-06T04:23:19.202Z,1.36
2022-12-06T04:25:49.177Z,1.36
2022-12-06T04:28:31.381Z,1.35
2022-12-06T04:31:17.184Z,1.47
2022-12-06T04:34:03.702Z,1.38
2022-12-06T04:36:48.290Z,1.39
2022-12-06T04:39:21.129Z,1.41
2022-12-06T04:42:03.443Z,1.45
2022-12-06T04:44:33.101Z,1.47
2022-12-06T04:47:02.853Z,1.49
2022-12-06T04:49:32.510Z,1.44
2022-12-06T04:52:04.707Z,1.42
2022-12-06T04:54:34.492Z,1.44
2022-12-06T04:57:04.369Z,1.45
2022-12-06T04:59:34.009Z,1.44
2022-12-06T05:02:03.646Z,1.48
2022-12-06T05:04:33.213Z,1.47
2022-12-06T05:07:05.461Z,1.45
2022-12-06T05:09:35.141Z,1.45
2022-12-06T05:12:04.693Z,1.44
2022-12-06T05:14:34.488Z,1.46
2022-12-06T05:17:04.059Z,1.44
2022-12-06T05:19:33.661Z,1.45
2022-12-06T05:22:05.816Z,1.46
2022-12-06T05:24:35.735Z,1.51
2022-12-06T05:27:05.441Z,1.57
2022-12-06T05:29:35.243Z,1.51
2022-12-06T05:32:04.983Z,1.56
2022-12-06T05:34:34.621Z,1.55
2022-12-06T05:37:06.738Z,1.54
2022-12-06T05:39:36.360Z,1.57
2022-12-06T05:42:06.104Z,1.59
2022-12-06T05:44:35.749Z,1.60
2022-12-06T05:47:05.395Z,1.57
2022-12-06T05:49:35.045Z,1.58
2022-12-06T05:52:09.833Z,1.58
2022-12-06T05:54:39.483Z,1.51
2022-12-06T05:57:09.043Z,1.56
2022-12-06T05:59:38.660Z,1.53
2022-12-06T06:02:08.431Z,1.51
2022-12-06T06:04:38.229Z,1.53
2022-12-06T06:07:10.372Z,1.53
2022-12-06T06:09:39.969Z,1.59
2022-12-06T06:12:12.597Z,1.62
2022-12-06T06:14:42.670Z,1.63
2022-12-06T06:17:12.286Z,1.62
2022-12-06T06:19:42.288Z,1.67
2022-12-06T06:22:14.633Z,1.62
2022-12-06T06:24:45.079Z,1.56
2022-12-06T06:27:14.788Z,1.65
2022-12-06T06:29:45.633Z,1.58
2022-12-06T06:32:15.532Z,1.54
2022-12-06T06:34:45.146Z,1.49
2022-12-06T06:37:17.447Z,1.46
2022-12-06T06:39:47.069Z,1.51
2022-12-06T06:42:17.585Z,1.54
2022-12-06T06:44:47.131Z,1.56
2022-12-06T06:47:16.653Z,1.61
2022-12-06T06:49:46.213Z,1.58
2022-12-06T06:52:18.453Z,1.61
2022-12-06T06:54:48.107Z,1.58
2022-12-06T06:57:18.402Z,1.58
2022-12-06T06:59:48.011Z,1.68
2022-12-06T07:02:19.221Z,1.65
2022-12-06T07:04:49.914Z,1.72
2022-12-06T07:07:22.114Z,1.66
2022-12-06T07:09:51.842Z,1.61
2022-12-06T07:12:21.365Z,1.65
2022-12-06T07:14:51.022Z,1.66
2022-12-06T07:17:20.611Z,1.72
2022-12-06T07:19:50.436Z,1.74
2022-12-06T07:22:22.615Z,1.82
2022-12-06T07:24:52.546Z,1.86
2022-12-06T07:27:22.221Z,1.89
2022-12-06T07:29:51.853Z,1.84
2022-12-06T07:32:21.391Z,1.82
2022-12-06T07:34:51.055Z,1.79
2022-12-06T07:37:23.351Z,1.82
2022-12-06T07:39:52.894Z,1.71
2022-12-06T07:42:34.872Z,1.71
2022-12-06T07:45:05.625Z,1.78
2022-12-06T07:47:36.537Z,1.88
2022-12-06T07:50:07.123Z,1.78
2022-12-06T07:52:40.322Z,1.78
2022-12-06T07:55:12.084Z,1.80
2022-12-06T07:57:43.998Z,1.81
2022-12-06T08:00:16.042Z,1.80
2022-12-06T08:02:45.956Z,1.82
2022-12-06T08:05:15.485Z,1.81
2022-12-06T08:07:47.813Z,1.79
2022-12-06T08:10:17.472Z,1.81
2022-12-06T08:12:47.030Z,1.88
2022-12-06T08:15:16.608Z,1.81
2022-12-06T08:17:46.807Z,1.80
2022-12-06T08:20:16.400Z,1.82
2022-12-06T08:22:48.580Z,1.89
2022-12-06T08:25:18.486Z,1.93
2022-12-06T08:27:47.966Z,2.02
2022-12-06T08:30:17.934Z,2.08
2022-12-06T08:32:47.478Z,2.02
2022-12-06T08:35:17.198Z,2.02
2022-12-06T08:37:49.622Z,2.01
2022-12-06T08:40:19.363Z,2.00
2022-12-06T08:42:48.918Z,2.03
2022-12-06T08:45:18.727Z,2.07
2022-12-06T08:47:48.322Z,2.09
2022-12-06T08:50:17.865Z,2.10
2022-12-06T08:52:50.090Z,2.15
2022-12-06T08:55:19.843Z,2.22
2022-12-06T08:57:49.374Z,2.15
2022-12-06T09:00:20.213Z,2.10
2022-12-06T09:02:49.811Z,2.14
2022-12-06T09:05:19.541Z,2.22
2022-12-06T09:07:51.837Z,2.13
2022-12-06T09:10:21.687Z,2.15
2022-12-06T09:12:51.238Z,2.18
2022-12-06T09:15:20.986Z,2.16
2022-12-06T09:17:50.554Z,2.18
2022-12-06T09:20:20.660Z,2.19
2022-12-06T09:22:52.793Z,2.16
2022-12-06T09:25:22.367Z,2.18
2022-12-06T09:27:51.924Z,2.19
2022-12-06T09:30:21.515Z,2.20
2022-12-06T09:32:51.520Z,2.27
2022-12-06T09:35:25.082Z,2.31
2022-12-06T09:37:57.657Z,2.30
2022-12-06T09:40:31.939Z,2.36
2022-12-06T09:43:10.591Z,2.39
2022-12-06T09:45:59.250Z,2.41
2022-12-06T09:48:50.372Z,2.47
2022-12-06T09:51:33.162Z,2.47
2022-12-06T09:54:15.768Z,2.51
2022-12-06T09:56:49.917Z,2.52
2022-12-06T09:59:25.509Z,2.52
2022-12-06T10:02:05.787Z,2.55
2022-12-06T10:04:59.450Z,2.58
2022-12-06T10:07:33.712Z,2.57
2022-12-06T10:10:17.350Z,2.59
2022-12-06T10:12:56.807Z,2.61
2022-12-06T10:15:32.297Z,2.65
2022-12-06T10:18:20.312Z,2.70
2022-12-06T10:20:54.852Z,2.72
2022-12-06T10:23:33.113Z,2.74
2022-12-06T10:26:14.212Z,2.79
2022-12-06T10:28:47.305Z,2.83
2022-12-06T10:31:25.007Z,2.86
2022-12-06T10:33:57.856Z,2.97
2022-12-06T10:36:39.599Z,3.03
2022-12-06T10:39:17.373Z,3.08
2022-12-06T10:41:51.379Z,3.12
2022-12-06T10:44:25.933Z,3.19
2022-12-06T10:47:05.041Z,3.24
2022-12-06T10:49:52.041Z,3.26
2022-12-06T10:52:34.598Z,3.24
2022-12-06T10:55:16.442Z,3.27
2022-12-06T10:57:52.007Z,3.30
2022-12-06T11:00:24.520Z,3.34
2022-12-06T11:02:59.226Z,3.36
2022-12-06T11:05:31.524Z,3.35
2022-12-06T11:08:06.492Z,3.44
2022-12-06T11:10:37.317Z,3.47
2022-12-06T11:13:20.409Z,3.53
2022-12-06T11:15:54.090Z,3.54
2022-12-06T11:18:24.136Z,3.52
2022-12-06T11:20:58.613Z,3.55
2022-12-06T11:23:32.726Z,3.56
2022-12-06T11:26:07.723Z,3.59
2022-12-06T11:28:42.011Z,3.58
2022-12-06T11:31:23.402Z,3.58
2022-12-06T11:33:53.195Z,3.61
2022-12-06T11:36:23.280Z,3.63
2022-12-06T11:38:52.833Z,3.71
2022-12-06T11:41:25.469Z,3.76
2022-12-06T11:43:58.579Z,3.78
2022-12-06T11:46:28.754Z,3.83
2022-12-06T11:49:01.663Z,3.86
2022-12-06T11:51:31.211Z,3.94
2022-12-06T11:54:03.931Z,3.97
2022-12-06T11:56:35.705Z,3.99
2022-12-06T12:02:07.179Z,4.11
2022-12-06T12:04:39.638Z,4.15
2022-12-06T12:07:15.552Z,4.17
2022-12-06T12:09:52.848Z,4.19
2022-12-06T12:12:25.207Z,4.23
2022-12-06T12:14:59.653Z,4.28
2022-12-06T12:17:34.333Z,4.26
2022-12-06T12:20:06.967Z,4.29
2022-12-06T12:22:38.866Z,4.34
2022-12-06T12:25:26.050Z,4.34
2022-12-06T12:27:56.898Z,4.33
2022-12-06T12:30:32.700Z,4.37
2022-12-06T12:33:19.074Z,4.40
2022-12-06T12:35:50.686Z,4.43
2022-12-06T12:38:26.420Z,4.43
2022-12-06T12:40:58.171Z,4.56
2022-12-06T12:43:30.006Z,4.51
2022-12-06T12:46:09.807Z,4.41
2022-12-06T12:48:44.073Z,4.43
2022-12-06T12:51:47.839Z,4.49
2022-12-06T12:54:28.025Z,4.53
2022-12-06T12:56:58.515Z,4.55
2022-12-06T12:59:29.708Z,4.48
2022-12-06T13:02:01.723Z,4.43
2022-12-06T13:04:43.044Z,4.33
2022-12-06T13:07:22.865Z,4.42
2022-12-06T13:09:59.825Z,4.44
2022-12-06T13:12:33.488Z,4.43
2022-12-06T13:15:06.843Z,4.48
2022-12-06T13:17:38.777Z,4.42
2022-12-06T13:20:23.774Z,4.37
2022-12-06T13:22:55.387Z,4.44
2022-12-06T13:25:25.030Z,4.33
2022-12-06T13:28:00.890Z,4.50
2022-12-06T13:30:36.941Z,4.58
2022-12-06T13:33:09.007Z,4.44
2022-12-06T13:35:43.762Z,4.45
2022-12-06T13:38:27.117Z,4.62
2022-12-06T13:40:57.708Z,4.66
2022-12-06T13:43:54.201Z,4.80
2022-12-06T13:46:29.483Z,4.86
2022-12-06T13:48:59.718Z,4.95
2022-12-06T13:51:51.185Z,5.04
2022-12-06T13:54:38.789Z,5.17
2022-12-06T13:57:27.553Z,5.23
2022-12-06T13:59:57.201Z,5.22
2022-12-06T14:02:53.938Z,5.26
2022-12-06T14:08:25.719Z,5.33
2022-12-06T14:10:55.362Z,5.28
2022-12-06T14:13:25.039Z,5.28
2022-12-06T14:15:55.152Z,5.21
2022-12-06T14:18:26.911Z,5.11
2022-12-06T14:20:59.033Z,5.17
2022-12-06T14:23:38.516Z,5.22
2022-12-06T14:26:16.609Z,5.13
2022-12-06T14:28:46.634Z,5.07
2022-12-06T14:31:28.260Z,5.05
2022-12-06T14:33:58.848Z,5.04
2022-12-06T14:36:31.249Z,5.04
2022-12-06T14:39:05.963Z,5.06
2022-12-06T14:41:51.607Z,4.94
2022-12-06T14:44:22.069Z,4.99
2022-12-06T14:46:52.522Z,4.95
2022-12-06T14:49:36.527Z,4.92
2022-12-06T14:52:19.091Z,4.89
2022-12-06T14:54:52.117Z,4.87
2022-12-06T14:57:30.531Z,4.88
2022-12-06T15:00:15.163Z,4.93
2022-12-06T15:03:23.967Z,4.94
2022-12-06T15:05:57.523Z,4.93
2022-12-06T15:08:36.671Z,4.85
2022-12-06T15:11:47.294Z,4.86
2022-12-06T15:14:18.753Z,4.80
2022-12-06T15:16:58.756Z,4.79
2022-12-06T15:19:28.907Z,4.66
2022-12-06T15:21:58.437Z,4.64
2022-12-06T15:24:29.163Z,4.54
2022-12-06T15:27:01.295Z,4.59
2022-12-06T15:29:30.937Z,4.59
2022-12-06T15:32:00.499Z,4.58
2022-12-06T15:34:31.460Z,4.62
2022-12-06T15:37:37.452Z,4.62
2022-12-06T15:39:52.587Z,4.61
2022-12-06T15:42:25.534Z,4.55
2022-12-06T15:44:55.369Z,4.46
2022-12-06T15:47:24.900Z,4.45
2022-12-06T15:49:58.214Z,4.47
2022-12-06T15:52:28.349Z,4.44
2022-12-06T15:54:57.869Z,4.46
2022-12-06T15:57:30.104Z,4.39
2022-12-06T15:59:59.736Z,4.38
2022-12-06T16:02:29.322Z,4.35
2022-12-06T16:04:59.119Z,4.37
2022-12-06T16:07:28.904Z,4.42
2022-12-06T16:09:58.546Z,4.44
2022-12-06T16:12:50.822Z,4.31
2022-12-06T16:15:20.414Z,4.32
2022-12-06T16:17:49.929Z,4.35
2022-12-06T16:20:35.557Z,4.36
2022-12-06T16:23:21.122Z,4.32
2022-12-06T16:25:51.307Z,4.29
2022-12-06T16:28:23.489Z,4.24
2022-12-06T16:30:53.140Z,4.19
2022-12-06T16:33:24.336Z,4.18
2022-12-06T16:35:55.750Z,4.15
2022-12-06T16:38:25.524Z,4.12
2022-12-06T16:40:55.080Z,4.12
2022-12-06T16:43:27.311Z,4.12
2022-12-06T16:46:04.843Z,4.10
2022-12-06T16:48:35.489Z,4.11
2022-12-06T16:51:05.140Z,4.11
2022-12-06T16:53:34.779Z,4.12
2022-12-06T16:56:04.485Z,4.10
2022-12-06T16:58:36.937Z,4.08
2022-12-06T17:01:07.547Z,4.04
2022-12-06T17:03:37.175Z,4.03
2022-12-06T17:06:07.193Z,3.96
2022-12-06T17:08:36.860Z,3.97
2022-12-06T17:11:18.683Z,3.99
2022-12-06T17:13:50.797Z,3.98
2022-12-06T17:16:20.598Z,3.98
2022-12-06T17:18:50.579Z,3.98
2022-12-06T17:21:20.222Z,3.98
2022-12-06T17:23:49.811Z,3.97
2022-12-06T17:26:19.553Z,3.99
2022-12-06T17:28:51.689Z,4.01
2022-12-06T17:31:21.319Z,4.06
2022-12-06T17:33:51.667Z,4.06
2022-12-06T17:36:25.172Z,4.09
2022-12-06T17:38:56.789Z,4.10
2022-12-06T17:41:40.120Z,4.04
2022-12-06T17:44:13.126Z,4.03
2022-12-06T17:46:43.595Z,4.08
2022-12-06T17:49:16.541Z,4.02
2022-12-06T17:51:46.298Z,4.10
2022-12-06T17:54:16.469Z,4.07
2022-12-06T17:56:46.972Z,4.05
2022-12-06T17:59:22.402Z,4.08
2022-12-06T18:04:44.046Z,4.07
2022-12-06T18:07:14.312Z,4.07
2022-12-06T18:09:44.000Z,4.05
2022-12-06T18:12:14.128Z,4.06
2022-12-06T18:14:46.353Z,4.08
2022-12-06T18:17:16.348Z,4.12
2022-12-06T18:19:47.165Z,4.11
2022-12-06T18:22:17.021Z,4.11
2022-12-06T18:24:47.030Z,4.08
2022-12-06T18:27:17.572Z,4.04
2022-12-06T18:29:49.801Z,4.05
2022-12-06T18:32:19.507Z,4.07
2022-12-06T18:34:49.101Z,4.08
2022-12-06T18:37:18.610Z,4.07
2022-12-06T18:39:48.397Z,4.11
2022-12-06T18:42:18.011Z,4.00
2022-12-06T18:44:54.993Z,4.03
2022-12-06T18:47:27.612Z,4.09
2022-12-06T18:49:57.264Z,4.11
2022-12-06T18:52:28.069Z,4.10
2022-12-06T18:54:57.668Z,4.15
2022-12-06T18:57:31.876Z,4.18
2022-12-06T19:00:05.058Z,4.23
2022-12-06T19:02:34.998Z,4.21
2022-12-06T19:05:04.659Z,4.24
2022-12-06T19:07:34.254Z,4.17
2022-12-06T19:10:04.153Z,4.18
2022-12-06T19:12:33.918Z,4.26
2022-12-06T19:15:06.524Z,4.19
2022-12-06T19:17:36.166Z,4.19
2022-12-06T19:20:05.799Z,4.16
2022-12-06T19:22:35.487Z,4.24
2022-12-06T19:25:05.100Z,4.22
2022-12-06T19:27:34.897Z,4.29
2022-12-06T19:30:08.951Z,4.28
2022-12-06T19:32:38.642Z,4.33
2022-12-06T19:35:09.035Z,4.30
2022-12-06T19:37:38.579Z,4.30
2022-12-06T19:40:09.705Z,4.33
2022-12-06T19:42:51.855Z,4.36
2022-12-06T19:45:24.023Z,4.36
2022-12-06T19:47:53.597Z,4.28
2022-12-06T19:50:23.137Z,4.29
2022-12-06T19:52:53.035Z,4.38
2022-12-06T19:55:22.647Z,4.37
2022-12-06T19:57:52.411Z,4.35
2022-12-06T20:00:24.613Z,4.37
2022-12-06T20:02:54.345Z,4.38
2022-12-06T20:05:23.952Z,4.37
2022-12-06T20:07:53.523Z,4.39
2022-12-06T20:10:23.172Z,4.35
2022-12-06T20:12:52.714Z,4.32
2022-12-06T20:15:25.014Z,4.36
2022-12-06T20:17:54.675Z,4.36
2022-12-06T20:20:24.231Z,4.34
2022-12-06T20:22:53.756Z,4.33
2022-12-06T20:25:23.306Z,4.27
2022-12-06T20:27:56.803Z,4.25
2022-12-06T20:30:30.645Z,4.29
2022-12-06T20:33:00.473Z,4.32
2022-12-06T20:35:30.294Z,4.30
2022-12-06T20:38:00.080Z,4.28
2022-12-06T20:40:31.583Z,4.37
2022-12-06T20:43:01.476Z,4.37
2022-12-06T20:45:33.595Z,4.41
2022-12-06T20:48:03.211Z,4.29
2022-12-06T20:50:32.748Z,4.36
2022-12-06T20:53:02.413Z,4.21
2022-12-06T20:55:32.191Z,4.26
2022-12-06T20:58:01.881Z,4.24
2022-12-06T21:00:34.073Z,4.26
2022-12-06T21:03:03.673Z,4.36
2022-12-06T21:05:33.261Z,4.24
2022-12-06T21:08:02.858Z,4.24
2022-12-06T21:10:32.505Z,4.21
2022-12-06T21:13:05.976Z,4.24
2022-12-06T21:15:38.555Z,4.23
2022-12-06T21:18:08.178Z,4.24
2022-12-06T21:20:40.134Z,4.24
2022-12-06T21:23:09.759Z,4.28
2022-12-06T21:25:39.679Z,4.24
2022-12-06T21:28:09.230Z,4.26
2022-12-06T21:30:41.516Z,4.26
2022-12-06T21:33:11.130Z,4.26
2022-12-06T21:35:40.735Z,4.27
2022-12-06T21:38:10.273Z,4.30
2022-12-06T21:40:39.909Z,4.31
2022-12-06T21:43:09.880Z,4.32
2022-12-06T21:45:43.131Z,4.32
2022-12-06T21:48:12.714Z,4.31
2022-12-06T21:50:42.688Z,4.27
2022-12-06T21:53:12.278Z,4.26
2022-12-06T21:55:42.648Z,4.26
2022-12-06T21:58:12.260Z,4.29
2022-12-06T22:00:44.423Z,4.27
2022-12-06T22:03:19.206Z,4.27
2022-12-06T22:05:52.174Z,4.41
2022-12-06T22:08:21.833Z,4.32
2022-12-06T22:10:52.613Z,4.36
2022-12-06T22:13:22.245Z,4.34
2022-12-06T22:15:54.392Z,4.34
2022-12-06T22:18:24.018Z,4.36
2022-12-06T22:21:03.302Z,4.36
2022-12-06T22:23:33.541Z,4.43
2022-12-06T22:26:03.510Z,4.43
2022-12-06T22:28:33.063Z,4.45
2022-12-06T22:31:14.202Z,4.47
2022-12-06T22:33:44.500Z,4.48
2022-12-06T22:36:17.683Z,4.53
2022-12-06T22:38:50.361Z,4.42
2022-12-06T22:41:20.446Z,4.42
2022-12-06T22:43:53.324Z,4.41
2022-12-06T22:46:26.527Z,4.49
2022-12-06T22:48:56.381Z,4.42
2022-12-06T22:51:28.144Z,4.49
2022-12-06T22:53:59.135Z,4.50
2022-12-06T22:56:29.580Z,4.56
2022-12-06T22:59:00.550Z,4.54
2022-12-06T23:01:34.232Z,4.55
2022-12-06T23:04:05.669Z,4.56
2022-12-06T23:06:37.011Z,4.59
2022-12-06T23:09:07.282Z,4.59
2022-12-06T23:11:38.266Z,4.59
2022-12-06T23:14:08.323Z,4.58
2022-12-06T23:16:41.598Z,4.62
2022-12-06T23:19:12.405Z,4.56
2022-12-06T23:21:42.535Z,4.55
2022-12-06T23:24:14.440Z,4.55
2022-12-06T23:26:45.572Z,4.54
2022-12-06T23:29:15.470Z,4.50
2022-12-06T23:31:49.491Z,4.52
2022-12-06T23:34:22.390Z,4.53
2022-12-06T23:36:52.402Z,4.51
2022-12-06T23:39:22.232Z,4.51
2022-12-06T23:41:51.780Z,4.53
2022-12-06T23:44:21.487Z,4.53
2022-12-06T23:46:53.662Z,4.53
2022-12-06T23:49:24.215Z,4.71
2022-12-06T23:51:53.799Z,4.59
2022-12-06T23:54:23.427Z,4.57
2022-12-06T23:56:53.031Z,4.57
2022-12-06T23:59:22.549Z,4.62
